Time;durP1;ratioP1;P1;durP2;ratioP2;P2;SDS_P1;SDS_P2;PMS_P1;PMS_P2;Temp;Humidity;BMP_temperature;BMP_pressure;BME280_temperature;BME280_humidity;BME280_pressure;Samples;Min_cycle;Max_cycle;Signal;HPM_P1;HPM_P2
2021/12/31 00:01:19;;;;;;;0.50;0.50;;;;;;;;;;1795700;78;26281;-37
2021/12/31 00:03:48;;;;;;;0.50;0.50;;;;;;;;;;1772069;80;26622;-39
2021/12/31 00:06:15;;;;;;;0.60;0.60;;;;;;;;;;1770212;80;26725;-39
2021/12/31 00:08:43;;;;;;;1.27;0.50;;;;;;;;;;1770038;80;26749;-37
2021/12/31 00:11:10;;;;;;;0.50;0.50;;;;;;;;;;1770142;80;26823;-39
2021/12/31 00:13:37;;;;;;;0.40;0.40;;;;;;;;;;1769822;80;26395;-38
2021/12/31 00:16:05;;;;;;;0.42;0.42;;;;;;;;;;1769778;81;26304;-38
2021/12/31 00:18:32;;;;;;;0.50;0.50;;;;;;;;;;1769921;80;26250;-37
2021/12/31 00:21:01;;;;;;;1.00;0.55;;;;;;;;;;1770152;80;26285;-39
2021/12/31 00:23:29;;;;;;;1.37;0.47;;;;;;;;;;1792226;80;26375;-37
2021/12/31 00:25:56;;;;;;;0.95;0.50;;;;;;;;;;1795465;80;26317;-39
2021/12/31 00:28:24;;;;;;;0.57;0.57;;;;;;;;;;1768761;80;26773;-40
2021/12/31 00:30:54;;;;;;;0.40;0.40;;;;;;;;;;1768786;80;26367;-37
2021/12/31 00:33:21;;;;;;;0.72;0.60;;;;;;;;;;1768737;80;26340;-39
2021/12/31 00:35:49;;;;;;;0.50;0.50;;;;;;;;;;1769157;80;26871;-37
2021/12/31 00:38:17;;;;;;;0.62;0.62;;;;;;;;;;1769201;81;26296;-40
2021/12/31 00:40:44;;;;;;;0.50;0.50;;;;;;;;;;1769991;80;26814;-37
2021/12/31 00:43:12;;;;;;;0.45;0.45;;;;;;;;;;1797138;80;26711;-38
2021/12/31 00:45:41;;;;;;;0.50;0.50;;;;;;;;;;1799971;78;26325;-38
2021/12/31 00:48:10;;;;;;;0.53;0.40;;;;;;;;;;1789971;80;26317;-37
2021/12/31 00:50:37;;;;;;;0.57;0.53;;;;;;;;;;1770031;81;26376;-37
2021/12/31 00:53:05;;;;;;;0.47;0.47;;;;;;;;;;1769823;81;26754;-38
2021/12/31 00:55:33;;;;;;;1.07;0.57;;;;;;;;;;1770053;81;26238;-37
2021/12/31 00:58:00;;;;;;;0.55;0.55;;;;;;;;;;1796549;80;26405;-40
2021/12/31 01:00:29;;;;;;;0.60;0.60;;;;;;;;;;1783341;80;26742;-37
2021/12/31 01:02:56;;;;;;;0.68;0.50;;;;;;;;;;1759218;81;26844;-39
2021/12/31 01:05:23;;;;;;;0.57;0.57;;;;;;;;;;1765578;79;26298;-38
2021/12/31 01:07:51;;;;;;;0.50;0.50;;;;;;;;;;1787968;80;26804;-37
2021/12/31 01:10:18;;;;;;;0.37;0.37;;;;;;;;;;1787731;80;26793;-37
2021/12/31 01:12:47;;;;;;;0.40;0.40;;;;;;;;;;1787847;80;26333;-38
2021/12/31 01:15:33;;;;;;;0.50;0.50;;;;;;;;;;1787868;80;26368;-37
2021/12/31 01:18:16;;;;;;;0.50;0.50;;;;;;;;;;1785041;80;26417;-38
2021/12/31 01:20:22;;;;;;;0.40;0.40;;;;;;;;;;1784867;80;26397;-36
2021/12/31 01:22:49;;;;;;;0.40;0.40;;;;;;;;;;1768313;80;26402;-37
2021/12/31 01:25:16;;;;;;;0.72;0.50;;;;;;;;;;1759050;81;26313;-38
2021/12/31 01:27:44;;;;;;;0.33;0.33;;;;;;;;;;1759194;80;26289;-37
2021/12/31 01:30:16;;;;;;;0.50;0.50;;;;;;;;;;1767336;80;26399;-39
2021/12/31 01:32:45;;;;;;;0.45;0.45;;;;;;;;;;1782015;80;26852;-37
2021/12/31 01:35:13;;;;;;;0.50;0.50;;;;;;;;;;1782101;80;26724;-37
2021/12/31 01:37:42;;;;;;;0.50;0.50;;;;;;;;;;1781834;79;26251;-37
2021/12/31 01:40:09;;;;;;;0.60;0.60;;;;;;;;;;1774112;80;26283;-39
2021/12/31 01:42:37;;;;;;;0.40;0.40;;;;;;;;;;1788024;80;26396;-37
2021/12/31 01:45:08;;;;;;;0.47;0.47;;;;;;;;;;1787695;79;26825;-37
2021/12/31 01:47:46;;;;;;;0.40;0.40;;;;;;;;;;1780151;79;26328;-37
2021/12/31 01:50:08;;;;;;;0.40;0.40;;;;;;;;;;1757642;81;26362;-38
2021/12/31 01:52:34;;;;;;;0.40;0.40;;;;;;;;;;1757816;81;26356;-38
2021/12/31 01:55:02;;;;;;;0.35;0.35;;;;;;;;;;1759067;81;26308;-38
2021/12/31 01:57:30;;;;;;;0.30;0.30;;;;;;;;;;1778227;79;26660;-37
2021/12/31 01:59:58;;;;;;;0.47;0.47;;;;;;;;;;1799963;79;26299;-38
2021/12/31 02:02:25;;;;;;;0.40;0.40;;;;;;;;;;1767937;78;26765;-37
2021/12/31 02:04:54;;;;;;;0.47;0.47;;;;;;;;;;1771463;81;26784;-37
2021/12/31 02:07:22;;;;;;;0.40;0.40;;;;;;;;;;1768027;80;26346;-38
2021/12/31 02:09:54;;;;;;;0.60;0.60;;;;;;;;;;1745127;81;26239;-37
2021/12/31 02:12:19;;;;;;;0.40;0.40;;;;;;;;;;1743482;81;26830;-37
2021/12/31 02:14:47;;;;;;;0.50;0.50;;;;;;;;;;1763486;81;26358;-38
2021/12/31 02:17:14;;;;;;;0.40;0.40;;;;;;;;;;1769394;81;26659;-38
2021/12/31 02:19:44;;;;;;;0.30;0.30;;;;;;;;;;1770773;81;26284;-38
2021/12/31 02:22:11;;;;;;;0.37;0.37;;;;;;;;;;1763595;81;26331;-43
2021/12/31 02:24:39;;;;;;;0.65;0.40;;;;;;;;;;1771407;81;26225;-38
2021/12/31 02:27:06;;;;;;;0.40;0.40;;;;;;;;;;1769337;81;26893;-43
2021/12/31 02:29:35;;;;;;;0.40;0.40;;;;;;;;;;1771499;80;26783;-39
2021/12/31 02:32:02;;;;;;;0.40;0.40;;;;;;;;;;1771218;80;26752;-39
2021/12/31 02:34:30;;;;;;;0.40;0.40;;;;;;;;;;1771422;81;26221;-37
2021/12/31 02:36:57;;;;;;;0.57;0.57;;;;;;;;;;1762748;80;26309;-40
2021/12/31 02:39:25;;;;;;;0.40;0.40;;;;;;;;;;1743370;81;26294;-37
2021/12/31 02:41:52;;;;;;;0.30;0.30;;;;;;;;;;1743324;82;26290;-37
2021/12/31 02:44:19;;;;;;;0.40;0.40;;;;;;;;;;1743234;82;26294;-37
2021/12/31 02:46:47;;;;;;;0.40;0.40;;;;;;;;;;1743439;82;26340;-37
2021/12/31 02:49:18;;;;;;;0.40;0.40;;;;;;;;;;1748349;81;26251;-37
2021/12/31 02:51:43;;;;;;;0.50;0.50;;;;;;;;;;1743078;81;25796;-37
2021/12/31 02:54:11;;;;;;;0.40;0.40;;;;;;;;;;1743139;81;26377;-41
2021/12/31 02:56:39;;;;;;;0.37;0.37;;;;;;;;;;1750437;80;26880;-38
2021/12/31 02:59:08;;;;;;;0.45;0.42;;;;;;;;;;1769354;80;26350;-39
2021/12/31 03:01:36;;;;;;;0.80;0.50;;;;;;;;;;1755556;81;26411;-38
2021/12/31 03:04:04;;;;;;;0.20;0.20;;;;;;;;;;1755367;81;26289;-39
2021/12/31 03:06:33;;;;;;;0.50;0.50;;;;;;;;;;1755507;82;26377;-38
2021/12/31 03:09:01;;;;;;;0.42;0.42;;;;;;;;;;1755610;82;25685;-38
2021/12/31 03:11:29;;;;;;;0.37;0.37;;;;;;;;;;1755541;81;26274;-38
2021/12/31 03:13:58;;;;;;;0.50;0.50;;;;;;;;;;1755594;81;26794;-38
2021/12/31 03:16:25;;;;;;;0.40;0.40;;;;;;;;;;1739647;82;26324;-36
2021/12/31 03:18:55;;;;;;;0.37;0.37;;;;;;;;;;1728273;82;26225;-37
2021/12/31 03:21:22;;;;;;;0.42;0.40;;;;;;;;;;1727499;83;26827;-37
2021/12/31 03:23:52;;;;;;;0.40;0.40;;;;;;;;;;1727149;83;26397;-41
2021/12/31 03:26:20;;;;;;;0.42;0.42;;;;;;;;;;1727932;82;26316;-39
2021/12/31 03:28:47;;;;;;;0.37;0.37;;;;;;;;;;1727608;83;26285;-37
2021/12/31 03:31:15;;;;;;;0.55;0.50;;;;;;;;;;1726909;82;26706;-38
2021/12/31 03:33:43;;;;;;;0.85;0.40;;;;;;;;;;1726929;82;26355;-39
2021/12/31 03:36:10;;;;;;;0.40;0.40;;;;;;;;;;1742906;82;26827;-39
2021/12/31 03:38:37;;;;;;;0.42;0.42;;;;;;;;;;1741052;81;27502;-36
2021/12/31 03:41:04;;;;;;;0.30;0.30;;;;;;;;;;1728236;83;26590;-37
2021/12/31 03:43:32;;;;;;;0.40;0.40;;;;;;;;;;1728215;83;25828;-38
2021/12/31 03:45:59;;;;;;;0.40;0.40;;;;;;;;;;1728032;83;26799;-38
2021/12/31 03:48:26;;;;;;;0.30;0.30;;;;;;;;;;1749191;80;26393;-37
2021/12/31 03:50:54;;;;;;;0.40;0.40;;;;;;;;;;1755522;82;26328;-40
2021/12/31 03:53:21;;;;;;;0.40;0.40;;;;;;;;;;1755504;82;26706;-37
2021/12/31 03:55:48;;;;;;;0.30;0.30;;;;;;;;;;1753938;82;26336;-37
2021/12/31 03:58:16;;;;;;;0.30;0.30;;;;;;;;;;1765250;80;26306;-37
2021/12/31 04:00:45;;;;;;;0.42;0.42;;;;;;;;;;1761807;79;26324;-39
2021/12/31 04:03:12;;;;;;;0.47;0.47;;;;;;;;;;1761249;80;26318;-38
2021/12/31 04:05:41;;;;;;;0.28;0.28;;;;;;;;;;1743146;82;26831;-42
2021/12/31 04:08:08;;;;;;;0.50;0.50;;;;;;;;;;1743351;81;26274;-37
2021/12/31 04:10:36;;;;;;;0.30;0.30;;;;;;;;;;1743282;82;26372;-37
2021/12/31 04:13:03;;;;;;;0.40;0.40;;;;;;;;;;1743316;81;26338;-38
2021/12/31 04:15:30;;;;;;;0.40;0.35;;;;;;;;;;1756520;80;26747;-38
2021/12/31 04:17:58;;;;;;;0.50;0.50;;;;;;;;;;1743198;82;25437;-38
2021/12/31 04:20:41;;;;;;;0.40;0.40;;;;;;;;;;1743341;81;26376;-37
2021/12/31 04:23:14;;;;;;;0.37;0.37;;;;;;;;;;1742037;81;26330;-38
2021/12/31 04:25:40;;;;;;;0.30;0.30;;;;;;;;;;1742079;81;26318;-38
2021/12/31 04:28:07;;;;;;;0.25;0.25;;;;;;;;;;1742195;81;25358;-41
2021/12/31 04:30:35;;;;;;;0.47;0.47;;;;;;;;;;1742129;81;26794;-37
2021/12/31 04:33:02;;;;;;;0.50;0.50;;;;;;;;;;1742195;81;26333;-39
2021/12/31 04:35:29;;;;;;;0.47;0.47;;;;;;;;;;1742137;81;26306;-37
2021/12/31 04:37:56;;;;;;;0.40;0.40;;;;;;;;;;1755597;81;26282;-37
2021/12/31 04:40:24;;;;;;;0.37;0.37;;;;;;;;;;1743185;81;26726;-38
2021/12/31 04:42:51;;;;;;;0.20;0.20;;;;;;;;;;1743404;81;26286;-37
2021/12/31 04:45:19;;;;;;;0.40;0.30;;;;;;;;;;1745060;81;26379;-38
2021/12/31 04:47:46;;;;;;;0.30;0.30;;;;;;;;;;1759778;80;25671;-37
2021/12/31 04:50:13;;;;;;;0.30;0.30;;;;;;;;;;1771267;81;26264;-37
2021/12/31 04:52:41;;;;;;;0.40;0.40;;;;;;;;;;1771529;81;26345;-36
2021/12/31 04:55:09;;;;;;;0.28;0.28;;;;;;;;;;1771266;81;26271;-37
2021/12/31 04:57:36;;;;;;;0.30;0.30;;;;;;;;;;1782216;79;26833;-38
2021/12/31 05:00:05;;;;;;;0.40;0.40;;;;;;;;;;1797296;77;26751;-37
2021/12/31 05:02:32;;;;;;;0.30;0.30;;;;;;;;;;1819314;79;26279;-37
2021/12/31 05:05:01;;;;;;;1.75;0.42;;;;;;;;;;1798940;78;26294;-38
2021/12/31 05:07:29;;;;;;;0.30;0.30;;;;;;;;;;1778697;80;26426;-37
2021/12/31 05:09:56;;;;;;;0.47;0.47;;;;;;;;;;1799004;80;26271;-37
2021/12/31 05:12:28;;;;;;;0.50;0.50;;;;;;;;;;1799003;79;26582;-37
2021/12/31 05:14:53;;;;;;;0.40;0.40;;;;;;;;;;1790951;79;26277;-38
2021/12/31 05:17:20;;;;;;;0.37;0.37;;;;;;;;;;1785828;78;26281;-38
2021/12/31 05:19:48;;;;;;;0.30;0.30;;;;;;;;;;1770136;81;26276;-37
2021/12/31 05:22:15;;;;;;;0.20;0.20;;;;;;;;;;1770057;81;26301;-37
2021/12/31 05:24:43;;;;;;;0.30;0.30;;;;;;;;;;1770248;81;26398;-37
2021/12/31 05:27:10;;;;;;;0.40;0.40;;;;;;;;;;1787274;80;26282;-38
2021/12/31 05:29:37;;;;;;;0.30;0.30;;;;;;;;;;1798977;78;26329;-37
2021/12/31 05:32:05;;;;;;;0.30;0.30;;;;;;;;;;1799018;78;26353;-38
2021/12/31 05:34:32;;;;;;;0.53;0.50;;;;;;;;;;1799181;80;26278;-44
2021/12/31 05:37:00;;;;;;;0.20;0.20;;;;;;;;;;1798759;79;26278;-39
2021/12/31 05:39:27;;;;;;;0.30;0.30;;;;;;;;;;1773719;80;26285;-38
2021/12/31 05:41:55;;;;;;;0.30;0.30;;;;;;;;;;1769875;81;26253;-37
2021/12/31 05:44:23;;;;;;;0.30;0.30;;;;;;;;;;1771808;80;26388;-37
2021/12/31 05:46:52;;;;;;;0.40;0.40;;;;;;;;;;1770198;80;26328;-37
2021/12/31 05:49:20;;;;;;;0.20;0.20;;;;;;;;;;1769981;81;26340;-38
2021/12/31 05:51:47;;;;;;;0.40;0.40;;;;;;;;;;1769993;80;26360;-38
2021/12/31 05:54:15;;;;;;;0.30;0.30;;;;;;;;;;1769990;81;26403;-37
2021/12/31 05:56:42;;;;;;;0.30;0.30;;;;;;;;;;1782761;78;26271;-37
2021/12/31 05:59:09;;;;;;;0.50;0.40;;;;;;;;;;1821505;78;26352;-37
2021/12/31 06:01:36;;;;;;;0.40;0.40;;;;;;;;;;1782789;78;26398;-38
2021/12/31 06:04:04;;;;;;;0.40;0.40;;;;;;;;;;1750957;81;26306;-37
2021/12/31 06:06:31;;;;;;;0.40;0.40;;;;;;;;;;1760316;79;26779;-37
2021/12/31 06:08:59;;;;;;;0.30;0.30;;;;;;;;;;1771503;80;26366;-40
2021/12/31 06:11:26;;;;;;;0.20;0.20;;;;;;;;;;1771198;79;26287;-39
2021/12/31 06:14:01;;;;;;;0.23;0.23;;;;;;;;;;1771440;80;26715;-39
2021/12/31 06:16:22;;;;;;;0.30;0.30;;;;;;;;;;1770558;80;26311;-37
2021/12/31 06:18:49;;;;;;;0.20;0.20;;;;;;;;;;1800227;80;26355;-39
2021/12/31 06:21:17;;;;;;;0.30;0.30;;;;;;;;;;1800045;78;26285;-38
2021/12/31 06:23:44;;;;;;;0.20;0.20;;;;;;;;;;1800215;78;26761;-37
2021/12/31 06:26:13;;;;;;;0.30;0.30;;;;;;;;;;1794656;80;26814;-37
2021/12/31 06:28:40;;;;;;;0.40;0.40;;;;;;;;;;1771429;80;26330;-37
2021/12/31 06:31:07;;;;;;;0.68;0.45;;;;;;;;;;1771134;81;26389;-39
2021/12/31 06:33:35;;;;;;;0.30;0.30;;;;;;;;;;1771427;81;26748;-39
2021/12/31 06:36:02;;;;;;;0.20;0.20;;;;;;;;;;1771351;81;26863;-42
2021/12/31 06:38:30;;;;;;;0.37;0.33;;;;;;;;;;1744873;80;26790;-38
2021/12/31 06:40:58;;;;;;;0.25;0.25;;;;;;;;;;1743183;82;26401;-39
2021/12/31 06:43:25;;;;;;;0.30;0.30;;;;;;;;;;1752780;81;26355;-37
2021/12/31 06:45:52;;;;;;;0.30;0.30;;;;;;;;;;1771472;81;26680;-37
2021/12/31 06:48:20;;;;;;;0.20;0.20;;;;;;;;;;1771164;81;26299;-38
2021/12/31 06:50:47;;;;;;;0.30;0.30;;;;;;;;;;1771402;81;26228;-38
2021/12/31 06:53:14;;;;;;;0.35;0.35;;;;;;;;;;1771369;80;26333;-38
2021/12/31 06:55:41;;;;;;;0.30;0.30;;;;;;;;;;1771494;81;26291;-38
2021/12/31 06:58:09;;;;;;;1.00;0.40;;;;;;;;;;1776935;79;26298;-37
2021/12/31 07:00:36;;;;;;;0.40;0.40;;;;;;;;;;1795381;79;26276;-38
2021/12/31 07:03:05;;;;;;;1.30;0.30;;;;;;;;;;1788034;79;26319;-38
2021/12/31 07:05:32;;;;;;;0.20;0.20;;;;;;;;;;1769293;80;26352;-37
2021/12/31 07:08:00;;;;;;;0.55;0.20;;;;;;;;;;1771389;80;26673;-38
2021/12/31 07:10:31;;;;;;;0.30;0.30;;;;;;;;;;1771240;81;26393;-37
2021/12/31 07:12:59;;;;;;;0.20;0.20;;;;;;;;;;1767331;81;25504;-40
2021/12/31 07:15:27;;;;;;;0.30;0.30;;;;;;;;;;1771153;80;26362;-37
2021/12/31 07:17:54;;;;;;;0.20;0.20;;;;;;;;;;1771384;81;26692;-38
2021/12/31 07:20:22;;;;;;;0.30;0.30;;;;;;;;;;1771004;80;26288;-39
2021/12/31 07:22:50;;;;;;;0.37;0.30;;;;;;;;;;1770233;81;26365;-38
2021/12/31 07:25:17;;;;;;;0.35;0.35;;;;;;;;;;1770051;81;26283;-39
2021/12/31 07:27:45;;;;;;;0.28;0.28;;;;;;;;;;1746572;81;26811;-38
2021/12/31 07:30:12;;;;;;;0.33;0.33;;;;;;;;;;1742256;82;26594;-40
2021/12/31 07:32:40;;;;;;;0.30;0.30;;;;;;;;;;1742067;82;26299;-41
2021/12/31 07:35:07;;;;;;;0.35;0.30;;;;;;;;;;1742034;82;26392;-40
2021/12/31 07:37:37;;;;;;;2.00;0.70;;;;;;;;;;1784241;79;26276;-38
2021/12/31 07:40:05;;;;;;;0.60;0.60;;;;;;;;;;1771363;81;25347;-38
2021/12/31 07:42:33;;;;;;;0.85;0.40;;;;;;;;;;1749113;81;26859;-38
2021/12/31 07:45:00;;;;;;;0.53;0.30;;;;;;;;;;1767775;79;26374;-39
2021/12/31 07:47:27;;;;;;;0.33;0.33;;;;;;;;;;1762385;79;26369;-39
2021/12/31 07:49:55;;;;;;;2.47;0.45;;;;;;;;;;1759420;80;26313;-37
2021/12/31 07:52:22;;;;;;;0.30;0.30;;;;;;;;;;1757575;80;26346;-37
2021/12/31 07:54:49;;;;;;;1.30;0.47;;;;;;;;;;1753498;80;26326;-37
2021/12/31 07:57:17;;;;;;;1.25;0.30;;;;;;;;;;1772343;79;26287;-37
2021/12/31 07:59:44;;;;;;;2.30;0.42;;;;;;;;;;1759498;80;26813;-37
2021/12/31 08:02:11;;;;;;;2.05;0.55;;;;;;;;;;1751556;80;26786;-38
2021/12/31 08:04:38;;;;;;;2.20;0.37;;;;;;;;;;1751823;80;26739;-38
2021/12/31 08:07:06;;;;;;;0.78;0.47;;;;;;;;;;1754650;80;26205;-39
2021/12/31 08:09:33;;;;;;;2.90;0.40;;;;;;;;;;1766082;80;26315;-39
2021/12/31 08:12:00;;;;;;;1.57;0.53;;;;;;;;;;1754774;80;26286;-37
2021/12/31 08:14:27;;;;;;;4.25;0.78;;;;;;;;;;1754002;79;26333;-38
2021/12/31 08:16:55;;;;;;;1.60;0.95;;;;;;;;;;1755257;80;26233;-36
2021/12/31 08:19:22;;;;;;;3.02;0.70;;;;;;;;;;1764396;80;26272;-37
2021/12/31 08:21:50;;;;;;;1.55;0.80;;;;;;;;;;1761598;80;26980;-38
2021/12/31 08:24:18;;;;;;;1.50;1.02;;;;;;;;;;1751234;81;26344;-39
2021/12/31 08:26:45;;;;;;;2.35;0.95;;;;;;;;;;1752568;81;26290;-37
2021/12/31 08:29:13;;;;;;;3.42;0.90;;;;;;;;;;1752289;79;26278;-43
2021/12/31 08:31:41;;;;;;;1.00;1.00;;;;;;;;;;1753972;80;26296;-37
2021/12/31 08:34:09;;;;;;;1.75;0.90;;;;;;;;;;1752661;80;26272;-39
2021/12/31 08:36:36;;;;;;;1.57;0.78;;;;;;;;;;1761359;80;26271;-37
2021/12/31 08:39:04;;;;;;;0.85;0.80;;;;;;;;;;1753163;80;26428;-38
2021/12/31 08:41:32;;;;;;;1.47;0.90;;;;;;;;;;1769779;80;26276;-38
2021/12/31 08:43:59;;;;;;;2.20;0.90;;;;;;;;;;1766444;80;26716;-41
2021/12/31 08:46:27;;;;;;;1.55;1.10;;;;;;;;;;1752692;80;26294;-38
2021/12/31 08:48:55;;;;;;;4.10;0.80;;;;;;;;;;1754201;80;26269;-38
2021/12/31 08:51:22;;;;;;;0.93;0.85;;;;;;;;;;1746297;80;26278;-38
2021/12/31 08:53:49;;;;;;;2.67;0.90;;;;;;;;;;1746848;80;26302;-37
2021/12/31 08:56:16;;;;;;;0.70;0.70;;;;;;;;;;1761649;80;26367;-37
2021/12/31 08:58:44;;;;;;;1.50;0.93;;;;;;;;;;1754878;80;26349;-38
2021/12/31 09:01:11;;;;;;;1.32;0.90;;;;;;;;;;1755322;80;26288;-40
2021/12/31 09:03:38;;;;;;;3.87;0.90;;;;;;;;;;1737289;80;26316;-38
2021/12/31 09:06:06;;;;;;;2.17;0.80;;;;;;;;;;1741297;80;26289;-39
2021/12/31 09:08:34;;;;;;;1.55;0.80;;;;;;;;;;1731288;82;26818;-38
2021/12/31 09:11:04;;;;;;;0.98;0.98;;;;;;;;;;1742475;80;26288;-37
2021/12/31 09:13:32;;;;;;;0.70;0.70;;;;;;;;;;1745339;80;26346;-37
2021/12/31 09:15:59;;;;;;;2.55;0.80;;;;;;;;;;1735665;80;26797;-38
2021/12/31 09:18:26;;;;;;;0.80;0.80;;;;;;;;;;1742117;80;26893;-36
2021/12/31 09:20:54;;;;;;;2.90;0.90;;;;;;;;;;1739945;80;26721;-38
2021/12/31 09:23:21;;;;;;;1.62;0.90;;;;;;;;;;1736555;80;26282;-37
2021/12/31 09:25:50;;;;;;;0.80;0.80;;;;;;;;;;1745146;80;26310;-38
2021/12/31 09:28:17;;;;;;;1.30;0.70;;;;;;;;;;1727630;80;26532;-41
2021/12/31 09:30:45;;;;;;;0.65;0.65;;;;;;;;;;1733763;80;26280;-37
2021/12/31 09:33:12;;;;;;;1.05;0.95;;;;;;;;;;1745263;80;26270;-37
2021/12/31 09:35:41;;;;;;;2.77;1.15;;;;;;;;;;1733311;80;26281;-38
2021/12/31 09:38:09;;;;;;;1.65;0.93;;;;;;;;;;1751515;80;26284;-40
2021/12/31 09:40:37;;;;;;;1.30;1.00;;;;;;;;;;1737749;80;26289;-38
2021/12/31 09:43:08;;;;;;;0.98;0.93;;;;;;;;;;1748373;80;27839;-38
2021/12/31 09:45:38;;;;;;;1.17;1.05;;;;;;;;;;1745871;80;26301;-38
2021/12/31 09:48:10;;;;;;;1.05;0.90;;;;;;;;;;1743269;81;26788;-37
2021/12/31 09:50:39;;;;;;;0.90;0.90;;;;;;;;;;1740956;82;26367;-37
2021/12/31 09:53:07;;;;;;;2.10;0.90;;;;;;;;;;1741669;80;26282;-37
2021/12/31 09:55:36;;;;;;;1.25;1.15;;;;;;;;;;1739404;82;26285;-37
2021/12/31 09:58:03;;;;;;;1.00;1.00;;;;;;;;;;1738885;82;26309;-40
2021/12/31 10:00:31;;;;;;;4.80;0.90;;;;;;;;;;1738465;82;26539;-37
2021/12/31 10:03:15;;;;;;;0.82;0.82;;;;;;;;;;1746249;81;26893;-37
2021/12/31 10:05:48;;;;;;;2.92;0.70;;;;;;;;;;1755278;81;26296;-37
2021/12/31 10:08:18;;;;;;;2.40;0.90;;;;;;;;;;1759491;81;26983;-43
2021/12/31 10:10:47;;;;;;;4.00;1.27;;;;;;;;;;1766669;80;26331;-40
2021/12/31 10:13:14;;;;;;;1.82;0.93;;;;;;;;;;1751639;81;26311;-37
2021/12/31 10:15:41;;;;;;;2.30;0.60;;;;;;;;;;1762804;81;26719;-39
2021/12/31 10:18:13;;;;;;;0.80;0.80;;;;;;;;;;1750596;81;26731;-40
2021/12/31 10:20:50;;;;;;;2.85;0.85;;;;;;;;;;1756914;81;26296;-38
2021/12/31 10:23:23;;;;;;;1.67;1.10;;;;;;;;;;1753898;81;26292;-39
2021/12/31 10:25:48;;;;;;;1.90;0.80;;;;;;;;;;1754283;80;26696;-37
2021/12/31 10:28:16;;;;;;;1.82;0.80;;;;;;;;;;1755848;81;26360;-38
2021/12/31 10:30:44;;;;;;;2.40;0.80;;;;;;;;;;1751393;80;26294;-39
2021/12/31 10:33:12;;;;;;;0.50;0.50;;;;;;;;;;1755215;81;26798;-37
2021/12/31 10:35:40;;;;;;;0.93;0.62;;;;;;;;;;1763849;81;26386;-39
2021/12/31 10:38:11;;;;;;;0.60;0.60;;;;;;;;;;1752293;80;26283;-39
2021/12/31 10:40:42;;;;;;;3.65;0.70;;;;;;;;;;1752286;80;26297;-38
2021/12/31 10:43:11;;;;;;;1.50;0.60;;;;;;;;;;1754432;79;26315;-38
2021/12/31 10:45:39;;;;;;;1.00;0.60;;;;;;;;;;1753957;80;26348;-39
2021/12/31 10:48:08;;;;;;;0.50;0.50;;;;;;;;;;1752142;81;26385;-37
2021/12/31 10:50:37;;;;;;;1.02;0.50;;;;;;;;;;1756958;81;26331;-38
2021/12/31 10:53:11;;;;;;;1.05;0.70;;;;;;;;;;1757595;81;26304;-39
2021/12/31 10:55:44;;;;;;;0.70;0.70;;;;;;;;;;1755370;81;26821;-37
2021/12/31 10:58:08;;;;;;;1.17;0.72;;;;;;;;;;1745672;80;26339;-39
2021/12/31 11:00:43;;;;;;;1.45;0.70;;;;;;;;;;1756817;80;26279;-37
2021/12/31 11:03:12;;;;;;;0.95;0.60;;;;;;;;;;1759704;80;26306;-42
2021/12/31 11:05:40;;;;;;;3.92;0.60;;;;;;;;;;1773234;80;25653;-40
2021/12/31 11:08:08;;;;;;;2.12;0.70;;;;;;;;;;1768130;80;26325;-37
2021/12/31 11:10:36;;;;;;;3.27;0.70;;;;;;;;;;1769442;80;26660;-38
2021/12/31 11:13:05;;;;;;;0.68;0.68;;;;;;;;;;1771015;79;27085;-39
2021/12/31 11:15:32;;;;;;;1.57;0.80;;;;;;;;;;1777945;80;26746;-37
2021/12/31 11:17:59;;;;;;;2.55;0.75;;;;;;;;;;1779031;80;26791;-38
2021/12/31 11:20:27;;;;;;;3.08;0.65;;;;;;;;;;1778463;80;26739;-37
2021/12/31 11:22:54;;;;;;;0.78;0.78;;;;;;;;;;1774886;79;26216;-35
2021/12/31 11:25:24;;;;;;;1.02;0.88;;;;;;;;;;1776572;80;26788;-36
2021/12/31 11:27:52;;;;;;;0.57;0.40;;;;;;;;;;1771156;79;26297;-35
2021/12/31 11:30:27;;;;;;;0.60;0.60;;;;;;;;;;1772733;79;26383;-38
2021/12/31 11:32:56;;;;;;;2.05;0.80;;;;;;;;;;1774889;79;26282;-36
2021/12/31 11:35:31;;;;;;;3.37;0.60;;;;;;;;;;1777868;79;26309;-36
2021/12/31 11:37:58;;;;;;;0.82;0.60;;;;;;;;;;1772902;79;26744;-36
2021/12/31 11:40:27;;;;;;;1.07;0.75;;;;;;;;;;1773704;79;26424;-37
2021/12/31 11:43:12;;;;;;;2.45;0.70;;;;;;;;;;1777186;79;26306;-41
2021/12/31 11:45:39;;;;;;;0.70;0.70;;;;;;;;;;1780106;79;26353;-39
2021/12/31 11:48:24;;;;;;;0.78;0.78;;;;;;;;;;1770225;79;26290;-35
2021/12/31 11:51:04;;;;;;;1.72;0.70;;;;;;;;;;1781298;79;26299;-35
2021/12/31 11:53:31;;;;;;;0.83;0.70;;;;;;;;;;1763348;79;28297;-43
2021/12/31 11:55:59;;;;;;;0.68;0.50;;;;;;;;;;1770203;79;26340;-38
2021/12/31 11:58:40;;;;;;;1.57;0.62;;;;;;;;;;1776385;79;26329;-38
2021/12/31 12:01:24;;;;;;;1.12;0.68;;;;;;;;;;1775834;79;26604;-40
2021/12/31 12:03:53;;;;;;;2.55;0.70;;;;;;;;;;1725730;82;26315;-42
2021/12/31 12:06:38;;;;;;;0.90;0.70;;;;;;;;;;1724815;80;28389;-37
2021/12/31 12:09:06;;;;;;;0.62;0.62;;;;;;;;;;1749396;80;26298;-35
2021/12/31 12:11:51;;;;;;;0.72;0.60;;;;;;;;;;1750699;80;26326;-37
2021/12/31 12:14:28;;;;;;;2.00;0.50;;;;;;;;;;1769513;81;28273;-39
2021/12/31 12:16:57;;;;;;;3.30;0.80;;;;;;;;;;1769644;80;27655;-37
2021/12/31 12:19:42;;;;;;;0.57;0.50;;;;;;;;;;1768889;80;26677;-37
2021/12/31 12:22:10;;;;;;;2.37;0.65;;;;;;;;;;1771337;81;26284;-38
2021/12/31 12:24:37;;;;;;;1.20;0.60;;;;;;;;;;1736479;80;28358;-36
2021/12/31 12:27:04;;;;;;;2.35;0.68;;;;;;;;;;1737278;80;28437;-39
2021/12/31 12:29:32;;;;;;;1.55;0.40;;;;;;;;;;1754916;80;26914;-35
2021/12/31 12:32:09;;;;;;;0.55;0.40;;;;;;;;;;1746358;80;27171;-38
2021/12/31 12:34:36;;;;;;;0.53;0.50;;;;;;;;;;1761198;80;26294;-30
2021/12/31 12:37:04;;;;;;;4.28;0.68;;;;;;;;;;1740005;80;28435;-31
2021/12/31 12:39:32;;;;;;;1.53;0.80;;;;;;;;;;1734289;79;28675;-30
2021/12/31 12:41:59;;;;;;;2.70;0.67;;;;;;;;;;1754800;79;28271;-30
2021/12/31 12:44:26;;;;;;;1.27;0.80;;;;;;;;;;1771266;81;26349;-30
2021/12/31 12:46:55;;;;;;;0.42;0.42;;;;;;;;;;1771379;80;26260;-30
2021/12/31 12:49:24;;;;;;;0.75;0.50;;;;;;;;;;1770387;81;26252;-29
2021/12/31 12:51:52;;;;;;;0.55;0.55;;;;;;;;;;1771622;81;26319;-31
2021/12/31 12:54:26;;;;;;;0.40;0.40;;;;;;;;;;1770873;80;26345;-30
2021/12/31 12:56:50;;;;;;;3.70;0.65;;;;;;;;;;1756094;80;26294;-29
2021/12/31 12:59:21;;;;;;;1.20;0.45;;;;;;;;;;1742115;81;27529;-32
2021/12/31 13:01:49;;;;;;;0.50;0.50;;;;;;;;;;1742614;81;26392;-30
2021/12/31 13:04:17;;;;;;;0.28;0.28;;;;;;;;;;1765305;80;26995;-30
2021/12/31 13:06:46;;;;;;;1.87;0.40;;;;;;;;;;1767412;81;26280;-30
2021/12/31 13:09:18;;;;;;;0.82;0.50;;;;;;;;;;1770170;80;26291;-30
2021/12/31 13:11:47;;;;;;;1.15;0.70;;;;;;;;;;1770220;81;26300;-30
2021/12/31 13:14:16;;;;;;;0.68;0.50;;;;;;;;;;1770102;81;26691;-31
2021/12/31 13:16:44;;;;;;;0.40;0.40;;;;;;;;;;1770581;80;26283;-31
2021/12/31 13:19:13;;;;;;;0.53;0.42;;;;;;;;;;1770698;80;27408;-30
2021/12/31 13:21:42;;;;;;;1.55;0.50;;;;;;;;;;1770853;81;26358;-29
2021/12/31 13:24:09;;;;;;;0.65;0.33;;;;;;;;;;1767578;80;26279;-30
2021/12/31 13:26:36;;;;;;;0.40;0.40;;;;;;;;;;1760637;80;26298;-29
2021/12/31 13:29:05;;;;;;;0.50;0.50;;;;;;;;;;1743236;82;26875;-29
2021/12/31 13:31:37;;;;;;;0.30;0.30;;;;;;;;;;1743289;82;26308;-28
2021/12/31 13:34:15;;;;;;;0.60;0.40;;;;;;;;;;1743343;82;26798;-30
2021/12/31 13:36:53;;;;;;;1.22;0.35;;;;;;;;;;1748768;81;26699;-30
2021/12/31 13:39:21;;;;;;;0.40;0.40;;;;;;;;;;1770500;81;26300;-29
2021/12/31 13:41:56;;;;;;;0.20;0.20;;;;;;;;;;1768874;80;26291;-31
2021/12/31 13:44:32;;;;;;;0.30;0.30;;;;;;;;;;1771083;80;26335;-29
2021/12/31 13:47:00;;;;;;;0.50;0.50;;;;;;;;;;1770689;80;26387;-29
2021/12/31 13:49:28;;;;;;;0.50;0.50;;;;;;;;;;1771451;81;26346;-29
2021/12/31 13:51:55;;;;;;;0.40;0.40;;;;;;;;;;1771350;80;26294;-29
2021/12/31 13:54:36;;;;;;;0.30;0.30;;;;;;;;;;1771365;81;26375;-31
2021/12/31 13:57:04;;;;;;;0.40;0.37;;;;;;;;;;1765485;80;26830;-29
2021/12/31 13:59:33;;;;;;;0.33;0.33;;;;;;;;;;1771242;81;26307;-30
2021/12/31 14:02:07;;;;;;;0.45;0.45;;;;;;;;;;1771436;81;26346;-29
2021/12/31 14:04:36;;;;;;;0.50;0.33;;;;;;;;;;1744828;81;26774;-30
2021/12/31 14:07:16;;;;;;;0.30;0.30;;;;;;;;;;1741880;81;26302;-30
2021/12/31 14:09:43;;;;;;;0.40;0.40;;;;;;;;;;1743355;81;26306;-31
2021/12/31 14:12:11;;;;;;;0.40;0.40;;;;;;;;;;1743202;82;26738;-29
2021/12/31 14:14:40;;;;;;;0.20;0.20;;;;;;;;;;1759544;81;26891;-30
2021/12/31 14:17:08;;;;;;;0.28;0.28;;;;;;;;;;1767803;80;26284;-31
2021/12/31 14:19:36;;;;;;;0.42;0.40;;;;;;;;;;1771397;81;26296;-29
2021/12/31 14:22:04;;;;;;;0.35;0.20;;;;;;;;;;1771364;81;26276;-29
2021/12/31 14:24:32;;;;;;;0.30;0.30;;;;;;;;;;1767612;80;26664;-30
2021/12/31 14:26:59;;;;;;;0.30;0.30;;;;;;;;;;1756798;81;26364;-30
2021/12/31 14:29:27;;;;;;;0.40;0.40;;;;;;;;;;1743316;82;26309;-29
2021/12/31 14:31:55;;;;;;;0.20;0.20;;;;;;;;;;1743238;81;26354;-31
2021/12/31 14:34:27;;;;;;;2.00;0.40;;;;;;;;;;1743229;82;26313;-30
2021/12/31 14:36:59;;;;;;;1.30;0.30;;;;;;;;;;1750999;81;26359;-30
2021/12/31 14:39:26;;;;;;;0.45;0.35;;;;;;;;;;1767849;80;27347;-29
2021/12/31 14:41:55;;;;;;;1.75;0.55;;;;;;;;;;1745049;80;26321;-30
2021/12/31 14:44:23;;;;;;;0.33;0.33;;;;;;;;;;1770172;81;26369;-30
2021/12/31 14:46:55;;;;;;;0.70;0.70;;;;;;;;;;1771553;80;26803;-30
2021/12/31 14:49:23;;;;;;;3.00;0.85;;;;;;;;;;1769729;80;26256;-30
2021/12/31 14:51:51;;;;;;;3.65;1.20;;;;;;;;;;1771383;81;26302;-29